HDAM/JIB METAR and TAF weather

Enter ICAO airport designator
Station Type Date Time Source
HDAM METAR 2022/11/30 15:00 UTC NOAA

HDAM 301500Z 08010KT 9999 BKN020 28/19 Q1013


Station Type Date Time Source
HDAM Decoded METAR 2022/11/30 15:00 UTC NOAA

Djibouti \ Ambouli, Djibouti (HDAM) 11-33N 043-10E
Nov 30, 2022 - 10:00 AM EST / 2022.11.30 1500 UTC
Wind: from the E (080 degrees) at 12 MPH (10 KT):0
Visibility: greater than 7 mile(s):0
Sky conditions: mostly cloudy
Temperature: 82 F (28 C)
Dew Point: 66 F (19 C)
Relative Humidity: 58%
Pressure (altimeter): 29.91 in. Hg (1013 hPa)
ob: HDAM 301500Z 08010KT 9999 BKN020 28/19 Q1013
cycle: 15

Station Type Date Time Source
HDAM TAF 2022/11/30 18:06 UTC NOAA

TAF TAF HDAM 301700Z 3018/0118 VRB03KT 9999 FEW020
BECMG 0100/0106 00000KT SCT020 FEW266
BECMG 0106/0115 08010KT

Example: see airport list